• Join FlightAware (Why Join?)
  • Login
  • US Flag 
12:34PM EDT


 

Airport Tracker/Info


-or-


 

Live Flight TrackerFlight Track Log ✈ PDT4314 ✈ 01-Sep-2013 ✈ KPHL - KBGM

Flight Track Log - Related Links

Times and Time Zones

All times are in EDT time to prevent confusion due to time zone crossing. See the PDT4314 flight status page for this flight to view local times or setup timezone preferences in your user account.

Time Position Orientation Groundspeed Altitude Reporting Facility
EDT Latitude Longitude Course Direction KTS MPH feet Rate Location/Type
05:38PM 39.9000 -75.2333 North 127 146 600  Level Philadelphia TRACON
05:40PM 39.9167 -75.2833 294° West 132 152 2,700 1,620 Climbing Philadelphia TRACON
05:41PM 40.0160 -75.3660 323° Northwest  Level FlightAware Approximate
05:41PM 39.9500 -75.3333 311° West 148 170 4,600  Level Philadelphia TRACON
05:42PM 40.0650 -75.4150 323° Northwest  Level FlightAware Approximate
05:42PM 39.9833 -75.3667 323° Northwest 145 167 6,400  Level Philadelphia TRACON
05:43PM 40.1130 -75.4594 303° West  Level FlightAware Approximate
05:43PM 40.0167 -75.4000 323° Northwest 149 171 7,900  Level Philadelphia TRACON
05:44PM 40.1631 -75.5000 North  Level FlightAware Approximate
05:44PM 40.0589 -75.4356 327° Northwest 169 194 9,000  Level New York Center
05:45PM 40.1075 -75.4661 334° Northwest 199 229 9,000 600 Level New York Center
05:46PM 40.1619 -75.5131 327° Northwest 213 245 10,200 1,140 Climbing New York Center
05:47PM 40.2125 -75.5547 328° Northwest 213 245 11,300 900 Climbing New York Center
05:48PM 40.2481 -75.6006 315° West 208 239 12,100 300 Climbing New York Center
05:49PM 40.2742 -75.6758 294° West 217 250 12,000 -60 Descending New York Center
05:50PM 40.3017 -75.7622 293° West 235 270 12,000  Level New York Center
05:51PM 40.3128 -75.8475 280° West 235 270 12,000  Level New York Center
05:52PM 40.3386 -75.9228 294° West 235 270 12,000  Level New York Center
05:53PM 40.3889 -75.9675 326° Northwest 229 264 12,000  Level New York Center
05:54PM 40.4447 -76.0264 321° Northwest 239 275 12,000  Level New York Center
05:55PM 40.4942 -76.0847 318° Northwest 239 275 12,000 240 Level New York Center
05:56PM 40.5461 -76.1322 325° Northwest 239 275 12,500 960 Climbing New York Center
05:57PM 40.5819 -76.1681 323° Northwest 204 235 14,000 720 Climbing New York Center
05:58PM 40.6236 -76.2178 318° Northwest 193 222 14,000  Level New York Center
05:59PM 40.6797 -76.2633 328° Northwest 207 238 14,000  Level New York Center
06:00PM 40.7450 -76.2519 North 213 245 14,000  Level New York Center
06:01PM 40.8119 -76.2436 North 224 258 14,000  Level New York Center
06:02PM 40.8725 -76.2431 360° North 234 269 14,000  Level New York Center
06:03PM 40.9478 -76.2353 North 234 269 14,000  Level New York Center
06:04PM 41.0169 -76.2244 North 240 276 14,000  Level New York Center
06:05PM 41.0842 -76.2161 North 240 276 14,000  Level New York Center
06:06PM 41.1428 -76.2097 North 240 276 14,000  Level New York Center
06:07PM 41.2117 -76.2069 North 240 276 14,000  Level New York Center
06:08PM 41.2847 -76.2019 North 235 270 14,000  Level New York Center
06:09PM 41.3517 -76.1961 North 235 270 14,000  Level New York Center
06:10PM 41.4183 -76.1961 360° North 235 270 14,000  Level New York Center
06:11PM 41.4789 -76.1897 North 235 270 14,000  Level New York Center
06:12PM 41.5461 -76.1814 North 235 270 14,000 -540 Level New York Center
06:13PM 41.6253 -76.1794 North 240 276 13,000 -960 Descending New York Center
06:14PM 41.7006 -76.1717 North 261 300 12,100 -960 Descending New York Center
06:15PM 41.7781 -76.1642 North 272 313 11,100 -1,080 Descending New York Center
06:16PM 41.8489 -76.1642 360° North 277 319 10,000 -1,140 Descending New York Center
06:17PM 41.9261 -76.1567 North 277 319 8,900 -1,200 Descending New York Center
06:18PM 42.0056 -76.1492 North 272 313 7,600 -1,740 Descending New York Center
06:19PM 42.0644 -76.0897 37° Northeast 254 292 5,500 -1,800 Descending New York Center
06:20PM 42.1008 -76.0228 54° Northeast 243 280 4,100 -1,200 Descending New York Center
06:21PM 42.1386 -75.9697 46° Northeast 218 251 3,200 -1,020 Descending New York Center
06:22PM 42.1786 -75.9589 11° North 149 171 2,100 -600 Descending New York Center
06:23PM 42.2128 -75.9364 26° Northeast 149 171 2,100  Level New York Center